createdAt,value
2022-08-14T00:02:31.449Z,2.78
2022-08-14T00:07:35.587Z,3.72
2022-08-14T00:12:56.418Z,4.57
2022-08-14T00:17:59.448Z,3.92
2022-08-14T00:23:11.946Z,4.43
2022-08-14T00:28:17.882Z,3.85
2022-08-14T00:33:20.586Z,4.18
2022-08-14T00:38:42.763Z,4.00
2022-08-14T00:43:46.467Z,2.85
2022-08-14T00:48:49.323Z,4.53
2022-08-14T00:53:51.559Z,3.05
2022-08-14T00:58:56.088Z,4.13
2022-08-14T01:04:01.610Z,4.32
2022-08-14T01:09:08.853Z,2.63
2022-08-14T01:14:25.684Z,4.40
2022-08-14T01:19:49.570Z,2.53
2022-08-14T01:24:51.864Z,2.97
2022-08-14T01:30:03.453Z,2.75
2022-08-14T01:35:18.393Z,2.30
2022-08-14T01:40:36.985Z,2.55
2022-08-14T01:45:49.154Z,3.03
2022-08-14T01:51:03.754Z,2.75
2022-08-14T01:56:12.167Z,2.22
2022-08-14T02:01:20.894Z,3.20
2022-08-14T02:06:33.315Z,1.80
2022-08-14T02:11:37.243Z,2.83
2022-08-14T02:16:42.832Z,3.22
2022-08-14T02:21:50.551Z,2.40
2022-08-14T02:26:58.310Z,1.90
2022-08-14T02:32:19.991Z,1.80
2022-08-14T02:37:46.983Z,2.33
2022-08-14T02:42:55.338Z,2.53
2022-08-14T02:48:10.471Z,2.65
2022-08-14T02:53:31.392Z,1.85
2022-08-14T02:58:42.385Z,2.20
2022-08-14T03:08:48.558Z,1.63
2022-08-14T03:13:52.665Z,1.55
2022-08-14T03:19:01.070Z,1.90
2022-08-14T03:24:04.886Z,1.90
2022-08-14T03:29:13.912Z,1.80
2022-08-14T03:34:24.825Z,1.90
2022-08-14T03:39:38.485Z,2.92
2022-08-14T03:45:19.913Z,1.92
2022-08-14T03:50:10.900Z,3.03
2022-08-14T03:55:14.119Z,2.60
2022-08-14T04:00:42.701Z,4.32
2022-08-14T04:05:43.227Z,4.32
2022-08-14T04:10:51.042Z,3.63
2022-08-14T04:16:01.259Z,6.00
2022-08-14T04:21:04.411Z,5.20
2022-08-14T04:26:14.517Z,4.55
2022-08-14T04:36:56.773Z,6.53
2022-08-14T04:42:17.592Z,6.35
2022-08-14T04:47:38.773Z,6.60
2022-08-14T04:52:53.939Z,7.95
2022-08-14T04:57:59.361Z,6.25
2022-08-14T05:03:03.526Z,6.88
2022-08-14T05:08:32.304Z,6.75
2022-08-14T05:13:53.297Z,5.65
2022-08-14T05:19:24.535Z,6.28
2022-08-14T05:24:21.873Z,4.95
2022-08-14T05:29:24.131Z,7.00
2022-08-14T05:34:31.820Z,4.35
2022-08-14T05:39:34.730Z,6.70
2022-08-14T05:44:37.064Z,5.80
2022-08-14T05:49:39.786Z,4.22
2022-08-14T05:54:42.477Z,3.72
2022-08-14T05:59:46.614Z,3.65
2022-08-14T06:04:49.449Z,4.07
2022-08-14T06:09:52.495Z,4.40
2022-08-14T06:14:54.882Z,5.10
2022-08-14T06:19:57.148Z,3.92
2022-08-14T06:24:59.548Z,5.30
2022-08-14T06:30:04.037Z,4.97
2022-08-14T06:35:13.123Z,4.28
2022-08-14T06:40:27.172Z,4.90
2022-08-14T06:45:31.757Z,4.22
2022-08-14T06:50:34.018Z,3.85
2022-08-14T06:55:37.025Z,4.47
2022-08-14T07:01:06.183Z,4.43
2022-08-14T07:06:11.734Z,4.40
2022-08-14T07:11:23.727Z,6.35
2022-08-14T07:16:29.245Z,6.20
2022-08-14T07:21:32.617Z,6.70
2022-08-14T07:26:36.576Z,7.03
2022-08-14T07:31:41.109Z,7.80
2022-08-14T07:36:58.017Z,6.60
2022-08-14T07:42:02.805Z,8.88
2022-08-14T07:47:05.474Z,9.60
2022-08-14T07:52:08.153Z,9.32
2022-08-14T07:57:12.613Z,11.10
2022-08-14T08:02:19.674Z,10.70
2022-08-14T08:07:30.023Z,12.85
2022-08-14T08:12:34.518Z,13.77
2022-08-14T08:17:38.581Z,14.75
2022-08-14T08:22:48.245Z,15.97
2022-08-14T08:28:08.246Z,15.82
2022-08-14T08:33:11.114Z,16.65
2022-08-14T08:39:15.128Z,16.00
2022-08-14T08:43:46.207Z,15.02
2022-08-14T08:48:54.106Z,15.02
2022-08-14T08:54:04.267Z,14.13
2022-08-14T08:59:21.014Z,13.57
2022-08-14T09:04:24.797Z,13.38
2022-08-14T09:09:30.631Z,12.32
2022-08-14T09:14:36.503Z,11.00
2022-08-14T09:19:42.540Z,12.00
2022-08-14T09:24:47.607Z,9.88
2022-08-14T09:29:54.081Z,8.38
2022-08-14T09:35:24.275Z,6.47
2022-08-14T09:40:56.280Z,7.63
2022-08-14T09:46:02.710Z,7.82
2022-08-14T09:56:12.469Z,5.95
2022-08-14T10:01:36.647Z,6.05
2022-08-14T10:06:45.345Z,5.45
2022-08-14T10:11:59.691Z,6.97
2022-08-14T10:17:02.628Z,5.28
2022-08-14T10:23:15.110Z,5.40
2022-08-14T10:27:34.062Z,5.22
2022-08-14T10:32:51.697Z,5.50
2022-08-14T10:37:54.487Z,5.00
2022-08-14T10:42:58.814Z,4.30
2022-08-14T10:48:24.308Z,4.43
2022-08-14T10:53:39.783Z,4.10
2022-08-14T10:58:42.563Z,4.40
2022-08-14T11:03:56.351Z,4.07
2022-08-14T11:08:59.333Z,3.33
2022-08-14T11:14:09.580Z,3.28
2022-08-14T11:19:13.591Z,5.43
2022-08-14T11:24:54.803Z,5.43
2022-08-14T11:29:43.389Z,5.45
2022-08-14T11:34:46.459Z,5.18
2022-08-14T11:39:48.846Z,5.10
2022-08-14T11:45:00.231Z,5.43
2022-08-14T11:50:15.286Z,5.55
2022-08-14T11:55:39.668Z,4.22
2022-08-14T12:00:54.465Z,5.40
2022-08-14T12:06:05.545Z,4.63
2022-08-14T12:11:10.334Z,5.28
2022-08-14T12:16:20.757Z,4.70
2022-08-14T12:21:29.532Z,4.45
2022-08-14T12:26:40.635Z,5.85
2022-08-14T12:31:47.382Z,5.78
2022-08-14T12:37:12.147Z,5.15
2022-08-14T12:42:34.111Z,5.28
2022-08-14T12:47:37.691Z,4.15
2022-08-14T12:52:56.123Z,3.95
2022-08-14T12:58:14.012Z,4.32
2022-08-14T13:03:29.796Z,5.18
2022-08-14T13:08:34.397Z,4.10
2022-08-14T13:13:37.891Z,4.80
2022-08-14T13:18:47.288Z,3.58
2022-08-14T13:24:00.428Z,4.80
2022-08-14T13:29:06.438Z,5.15
2022-08-14T13:34:13.372Z,4.60
2022-08-14T13:39:20.546Z,4.55
2022-08-14T13:44:27.194Z,3.65
2022-08-14T13:49:29.852Z,3.55
2022-08-14T13:54:36.400Z,4.40
2022-08-14T13:59:45.731Z,4.35
2022-08-14T14:04:49.467Z,4.38
2022-08-14T14:09:55.305Z,3.42
2022-08-14T14:15:01.736Z,4.38
2022-08-14T14:20:34.690Z,3.50
2022-08-14T14:25:41.201Z,4.20
2022-08-14T14:30:53.189Z,4.05
2022-08-14T14:35:57.022Z,2.97
2022-08-14T14:41:03.666Z,3.05
2022-08-14T14:46:09.750Z,3.00
2022-08-14T14:51:17.011Z,2.72
2022-08-14T14:56:50.458Z,2.80
2022-08-14T15:01:47.821Z,3.28
2022-08-14T15:06:50.178Z,2.55
2022-08-14T15:11:55.503Z,2.65
2022-08-14T15:16:59.067Z,2.35
2022-08-14T15:22:03.354Z,3.53
2022-08-14T15:27:06.890Z,3.15
2022-08-14T15:32:10.978Z,2.55
2022-08-14T15:37:16.745Z,2.80
2022-08-14T15:42:20.120Z,3.03
2022-08-14T15:47:28.216Z,2.42
2022-08-14T15:52:35.455Z,2.38
2022-08-14T15:58:01.576Z,2.35
2022-08-14T16:03:03.519Z,2.20
2022-08-14T16:08:27.051Z,2.30
2022-08-14T16:13:42.186Z,2.00
2022-08-14T16:18:45.611Z,1.70
2022-08-14T16:23:48.551Z,2.08
2022-08-14T16:29:04.503Z,2.28
2022-08-14T16:34:45.919Z,1.80
2022-08-14T16:39:29.438Z,2.05
2022-08-14T16:44:40.884Z,1.58
2022-08-14T16:50:03.177Z,2.20
2022-08-14T16:55:09.066Z,1.88
2022-08-14T17:00:44.021Z,2.20
2022-08-14T17:05:48.137Z,1.90
2022-08-14T17:10:50.339Z,1.90
2022-08-14T17:16:23.949Z,1.52
2022-08-14T17:21:31.899Z,2.03
2022-08-14T17:26:44.781Z,1.58
2022-08-14T17:31:58.616Z,1.48
2022-08-14T17:37:02.673Z,1.70
2022-08-14T17:42:08.057Z,1.60
2022-08-14T17:47:18.059Z,1.70
2022-08-14T17:52:35.823Z,1.90
2022-08-14T17:57:43.158Z,1.80
2022-08-14T18:02:50.414Z,1.98
2022-08-14T18:08:31.295Z,2.20
2022-08-14T18:13:16.496Z,1.90
2022-08-14T18:18:18.980Z,1.80
2022-08-14T18:23:21.800Z,2.47
2022-08-14T18:28:51.176Z,2.25
2022-08-14T18:34:11.825Z,2.50
2022-08-14T18:39:23.242Z,1.98
2022-08-14T18:44:50.669Z,2.72
2022-08-14T18:50:00.666Z,3.63
2022-08-14T18:55:21.510Z,4.65
2022-08-14T19:00:32.958Z,5.53
2022-08-14T19:05:47.621Z,5.45
2022-08-14T19:10:52.501Z,4.78
2022-08-14T19:16:13.834Z,7.45
2022-08-14T19:21:46.486Z,6.22
2022-08-14T19:26:54.676Z,5.50
2022-08-14T19:31:59.559Z,6.67
2022-08-14T19:37:06.092Z,8.23
2022-08-14T19:42:10.449Z,7.43
2022-08-14T19:47:15.482Z,9.60
2022-08-14T19:52:35.222Z,6.90
2022-08-14T19:57:39.512Z,6.22
2022-08-14T20:02:51.078Z,4.53
2022-08-14T20:08:06.417Z,8.02
2022-08-14T20:13:32.200Z,9.85
2022-08-14T20:18:49.674Z,8.25
2022-08-14T20:24:31.045Z,7.30
2022-08-14T20:29:38.982Z,10.73
2022-08-14T20:39:55.854Z,9.15
2022-08-14T20:45:18.776Z,8.88
2022-08-14T20:50:28.693Z,13.73
2022-08-14T20:55:37.371Z,13.85
2022-08-14T21:00:52.242Z,11.30
2022-08-14T21:05:58.130Z,9.05
2022-08-14T21:11:01.256Z,8.13
2022-08-14T21:16:33.662Z,13.73
2022-08-14T21:21:41.379Z,11.77
2022-08-14T21:26:52.644Z,8.70
2022-08-14T21:32:20.842Z,13.35
2022-08-14T21:37:23.699Z,10.55
2022-08-14T21:42:27.955Z,9.77
2022-08-14T21:47:30.338Z,8.38
2022-08-14T21:52:49.151Z,7.80
2022-08-14T21:58:04.089Z,13.75
2022-08-14T22:03:24.313Z,11.63
2022-08-14T22:08:27.307Z,10.27
2022-08-14T22:13:32.467Z,10.50
2022-08-14T22:18:34.914Z,12.77
2022-08-14T22:23:38.878Z,14.68
2022-08-14T22:28:44.987Z,14.32
2022-08-14T22:33:50.006Z,12.60
2022-08-14T22:39:00.350Z,14.23
2022-08-14T22:44:15.053Z,14.82
2022-08-14T22:50:29.163Z,16.05
2022-08-14T22:54:52.520Z,14.95
2022-08-14T22:59:55.878Z,13.48
2022-08-14T23:05:03.756Z,15.07
2022-08-14T23:10:31.675Z,14.55
2022-08-14T23:15:30.066Z,14.82
2022-08-14T23:20:33.937Z,13.35
2022-08-14T23:25:59.428Z,18.98
2022-08-14T23:31:05.871Z,17.42
2022-08-14T23:36:32.082Z,14.18
2022-08-14T23:41:46.188Z,12.70
2022-08-14T23:46:56.962Z,13.52
2022-08-14T23:53:06.038Z,12.30
2022-08-14T23:57:25.122Z,14.07
